sensor_id;sensor_type;location;lat;lon;timestamp;pressure;altitude;pressure_sealevel;temperature;humidity
86173;BME280;76822;46.880;8.642;2024-02-28T00:01:12;96075.00;;;8.44;100.00
86173;BME280;76822;46.880;8.642;2024-02-28T00:04:32;96079.94;;;8.47;100.00
86173;BME280;76822;46.880;8.642;2024-02-28T00:07:52;96077.25;;;8.47;100.00
86173;BME280;76822;46.880;8.642;2024-02-28T00:11:13;96074.34;;;8.48;100.00
86173;BME280;76822;46.880;8.642;2024-02-28T00:14:33;96070.38;;;8.51;100.00
86173;BME280;76822;46.880;8.642;2024-02-28T00:17:54;96083.03;;;8.50;100.00
86173;BME280;76822;46.880;8.642;2024-02-28T00:21:14;96082.41;;;8.48;100.00
86173;BME280;76822;46.880;8.642;2024-02-28T00:24:35;96090.72;;;8.47;100.00
86173;BME280;76822;46.880;8.642;2024-02-28T00:27:55;96092.78;;;8.45;100.00
86173;BME280;76822;46.880;8.642;2024-02-28T00:31:16;96088.91;;;8.41;100.00
86173;BME280;76822;46.880;8.642;2024-02-28T00:34:36;96093.25;;;8.42;100.00
86173;BME280;76822;46.880;8.642;2024-02-28T00:37:56;96099.22;;;8.44;100.00
86173;BME280;76822;46.880;8.642;2024-02-28T00:41:17;96100.66;;;8.46;100.00
86173;BME280;76822;46.880;8.642;2024-02-28T00:44:37;96098.56;;;8.48;100.00
86173;BME280;76822;46.880;8.642;2024-02-28T00:47:58;96092.78;;;8.45;100.00
86173;BME280;76822;46.880;8.642;2024-02-28T00:51:18;96092.38;;;8.48;100.00
86173;BME280;76822;46.880;8.642;2024-02-28T00:54:38;96089.44;;;8.49;100.00
86173;BME280;76822;46.880;8.642;2024-02-28T00:57:59;96096.22;;;8.52;100.00
86173;BME280;76822;46.880;8.642;2024-02-28T01:01:19;96107.91;;;8.46;100.00
86173;BME280;76822;46.880;8.642;2024-02-28T01:04:41;96108.94;;;8.45;100.00
86173;BME280;76822;46.880;8.642;2024-02-28T01:08:02;96109.41;;;8.42;100.00
86173;BME280;76822;46.880;8.642;2024-02-28T01:11:22;96117.31;;;8.37;100.00
86173;BME280;76822;46.880;8.642;2024-02-28T01:14:43;96110.28;;;8.35;100.00
86173;BME280;76822;46.880;8.642;2024-02-28T01:18:03;96111.56;;;8.33;100.00
86173;BME280;76822;46.880;8.642;2024-02-28T01:21:24;96118.81;;;8.32;100.00
86173;BME280;76822;46.880;8.642;2024-02-28T01:24:44;96113.81;;;8.29;100.00
86173;BME280;76822;46.880;8.642;2024-02-28T01:28:04;96109.34;;;8.23;100.00
86173;BME280;76822;46.880;8.642;2024-02-28T01:31:25;96109.56;;;8.22;100.00
86173;BME280;76822;46.880;8.642;2024-02-28T01:34:46;96114.50;;;8.25;100.00
86173;BME280;76822;46.880;8.642;2024-02-28T01:38:06;96108.28;;;8.24;100.00
86173;BME280;76822;46.880;8.642;2024-02-28T01:41:26;96112.84;;;8.24;100.00
86173;BME280;76822;46.880;8.642;2024-02-28T01:44:48;96114.72;;;8.23;100.00
86173;BME280;76822;46.880;8.642;2024-02-28T01:48:12;96099.63;;;8.22;100.00
86173;BME280;76822;46.880;8.642;2024-02-28T01:51:32;96098.78;;;8.22;100.00
86173;BME280;76822;46.880;8.642;2024-02-28T01:54:53;96109.56;;;8.22;100.00
86173;BME280;76822;46.880;8.642;2024-02-28T01:58:13;96106.03;;;8.21;100.00
86173;BME280;76822;46.880;8.642;2024-02-28T02:01:34;96115.81;;;8.16;100.00
86173;BME280;76822;46.880;8.642;2024-02-28T02:04:54;96111.75;;;8.07;100.00
86173;BME280;76822;46.880;8.642;2024-02-28T02:08:18;96112.59;;;8.07;100.00
86173;BME280;76822;46.880;8.642;2024-02-28T02:11:38;96108.25;;;8.06;100.00
86173;BME280;76822;46.880;8.642;2024-02-28T02:14:59;96109.66;;;8.09;100.00
86173;BME280;76822;46.880;8.642;2024-02-28T02:18:19;96094.97;;;8.11;100.00
86173;BME280;76822;46.880;8.642;2024-02-28T02:21:49;96090.78;;;8.15;100.00
86173;BME280;76822;46.880;8.642;2024-02-28T02:25:10;96095.94;;;8.17;100.00
86173;BME280;76822;46.880;8.642;2024-02-28T02:28:30;96100.50;;;8.16;100.00
86173;BME280;76822;46.880;8.642;2024-02-28T02:31:51;96100.25;;;8.18;100.00
86173;BME280;76822;46.880;8.642;2024-02-28T02:35:11;96096.59;;;8.12;100.00
86173;BME280;76822;46.880;8.642;2024-02-28T02:38:32;96110.66;;;8.14;100.00
86173;BME280;76822;46.880;8.642;2024-02-28T02:41:52;96113.50;;;8.19;100.00
86173;BME280;76822;46.880;8.642;2024-02-28T02:45:12;96120.09;;;8.23;100.00
86173;BME280;76822;46.880;8.642;2024-02-28T02:48:33;96120.31;;;8.22;100.00
86173;BME280;76822;46.880;8.642;2024-02-28T02:51:53;96117.84;;;8.20;100.00
86173;BME280;76822;46.880;8.642;2024-02-28T02:55:14;96133.59;;;8.17;100.00
86173;BME280;76822;46.880;8.642;2024-02-28T02:58:35;96134.88;;;8.14;100.00
86173;BME280;76822;46.880;8.642;2024-02-28T03:01:55;96125.44;;;8.05;100.00
86173;BME280;76822;46.880;8.642;2024-02-28T03:05:16;96127.94;;;8.00;100.00
86173;BME280;76822;46.880;8.642;2024-02-28T03:08:36;96134.53;;;8.04;100.00
86173;BME280;76822;46.880;8.642;2024-02-28T03:11:56;96135.97;;;8.07;100.00
86173;BME280;76822;46.880;8.642;2024-02-28T03:15:17;96129.31;;;8.09;100.00
86173;BME280;76822;46.880;8.642;2024-02-28T03:18:37;96126.78;;;8.14;100.00
86173;BME280;76822;46.880;8.642;2024-02-28T03:21:58;96130.75;;;8.12;100.00
86173;BME280;76822;46.880;8.642;2024-02-28T03:25:18;96138.25;;;8.03;100.00
86173;BME280;76822;46.880;8.642;2024-02-28T03:28:38;96138.97;;;7.92;100.00
86173;BME280;76822;46.880;8.642;2024-02-28T03:31:59;96146.59;;;7.95;100.00
86173;BME280;76822;46.880;8.642;2024-02-28T03:35:19;96142.44;;;7.99;100.00
86173;BME280;76822;46.880;8.642;2024-02-28T03:38:40;96150.06;;;8.02;100.00
86173;BME280;76822;46.880;8.642;2024-02-28T03:42:01;96152.38;;;7.98;100.00
86173;BME280;76822;46.880;8.642;2024-02-28T03:45:22;96160.44;;;7.98;100.00
86173;BME280;76822;46.880;8.642;2024-02-28T03:48:43;96168.50;;;7.98;100.00
86173;BME280;76822;46.880;8.642;2024-02-28T03:52:03;96165.56;;;8.00;100.00
86173;BME280;76822;46.880;8.642;2024-02-28T03:55:26;96176.13;;;8.02;100.00
86173;BME280;76822;46.880;8.642;2024-02-28T03:58:46;96176.94;;;8.02;100.00
86173;BME280;76822;46.880;8.642;2024-02-28T04:02:07;96182.31;;;8.02;100.00
86173;BME280;76822;46.880;8.642;2024-02-28T04:05:27;96183.97;;;8.03;100.00
86173;BME280;76822;46.880;8.642;2024-02-28T04:08:48;96183.16;;;8.03;100.00
86173;BME280;76822;46.880;8.642;2024-02-28T04:12:08;96185.00;;;8.02;100.00
86173;BME280;76822;46.880;8.642;2024-02-28T04:15:30;96182.31;;;8.02;100.00
86173;BME280;76822;46.880;8.642;2024-02-28T04:18:51;96182.94;;;8.04;100.00
86173;BME280;76822;46.880;8.642;2024-02-28T04:22:11;96183.34;;;8.08;100.00
86173;BME280;76822;46.880;8.642;2024-02-28T04:25:31;96191.16;;;8.09;100.00
86173;BME280;76822;46.880;8.642;2024-02-28T04:28:52;96189.69;;;8.13;100.00
86173;BME280;76822;46.880;8.642;2024-02-28T04:32:12;96201.69;;;8.11;100.00
86173;BME280;76822;46.880;8.642;2024-02-28T04:35:33;96206.47;;;8.09;100.00
86173;BME280;76822;46.880;8.642;2024-02-28T04:38:54;96205.06;;;8.06;100.00
86173;BME280;76822;46.880;8.642;2024-02-28T04:42:15;96207.34;;;8.03;100.00
86173;BME280;76822;46.880;8.642;2024-02-28T04:45:36;96209.22;;;8.02;100.00
86173;BME280;76822;46.880;8.642;2024-02-28T04:48:57;96211.53;;;7.98;100.00
86173;BME280;76822;46.880;8.642;2024-02-28T04:52:17;96212.78;;;7.96;100.00
86173;BME280;76822;46.880;8.642;2024-02-28T04:55:37;96214.03;;;7.93;100.00
86173;BME280;76822;46.880;8.642;2024-02-28T04:58:58;96223.94;;;7.93;100.00
86173;BME280;76822;46.880;8.642;2024-02-28T05:02:18;96228.91;;;7.96;100.00
86173;BME280;76822;46.880;8.642;2024-02-28T05:05:39;96231.44;;;7.91;100.00
86173;BME280;76822;46.880;8.642;2024-02-28T05:08:59;96228.13;;;7.89;100.00
86173;BME280;76822;46.880;8.642;2024-02-28T05:12:19;96231.84;;;7.88;100.00
86173;BME280;76822;46.880;8.642;2024-02-28T05:15:40;96233.09;;;7.85;100.00
86173;BME280;76822;46.880;8.642;2024-02-28T05:19:00;96233.19;;;7.72;100.00
86173;BME280;76822;46.880;8.642;2024-02-28T05:22:20;96236.88;;;7.78;100.00
86173;BME280;76822;46.880;8.642;2024-02-28T05:25:41;96235.41;;;7.82;100.00
86173;BME280;76822;46.880;8.642;2024-02-28T05:29:02;96243.91;;;7.79;100.00
86173;BME280;76822;46.880;8.642;2024-02-28T05:32:23;96245.09;;;7.83;100.00
86173;BME280;76822;46.880;8.642;2024-02-28T05:35:44;96242.00;;;7.86;100.00
86173;BME280;76822;46.880;8.642;2024-02-28T05:39:05;96243.03;;;7.85;100.00
86173;BME280;76822;46.880;8.642;2024-02-28T05:42:25;96249.44;;;7.84;100.00
86173;BME280;76822;46.880;8.642;2024-02-28T05:45:46;96251.91;;;7.85;100.00
86173;BME280;76822;46.880;8.642;2024-02-28T05:49:06;96258.31;;;7.84;100.00
86173;BME280;76822;46.880;8.642;2024-02-28T05:52:28;96271.19;;;7.82;100.00
86173;BME280;76822;46.880;8.642;2024-02-28T05:55:48;96275.28;;;7.85;100.00
86173;BME280;76822;46.880;8.642;2024-02-28T05:59:08;96283.97;;;7.87;100.00
86173;BME280;76822;46.880;8.642;2024-02-28T06:02:29;96283.53;;;7.90;100.00
86173;BME280;76822;46.880;8.642;2024-02-28T06:05:49;96284.59;;;7.89;100.00
86173;BME280;76822;46.880;8.642;2024-02-28T06:09:10;96296.56;;;7.86;100.00
86173;BME280;76822;46.880;8.642;2024-02-28T06:12:30;96305.06;;;7.90;100.00
86173;BME280;76822;46.880;8.642;2024-02-28T06:15:51;96309.97;;;7.93;100.00
86173;BME280;76822;46.880;8.642;2024-02-28T06:19:11;96314.94;;;7.96;100.00
86173;BME280;76822;46.880;8.642;2024-02-28T06:22:32;96318.66;;;7.95;100.00
86173;BME280;76822;46.880;8.642;2024-02-28T06:25:52;96329.22;;;7.96;100.00
86173;BME280;76822;46.880;8.642;2024-02-28T06:29:12;96335.22;;;7.92;100.00
86173;BME280;76822;46.880;8.642;2024-02-28T06:32:34;96335.88;;;7.87;100.00
86173;BME280;76822;46.880;8.642;2024-02-28T06:35:54;96344.97;;;7.86;100.00
86173;BME280;76822;46.880;8.642;2024-02-28T06:39:15;96348.47;;;7.87;100.00
86173;BME280;76822;46.880;8.642;2024-02-28T06:42:35;96362.94;;;7.92;100.00
86173;BME280;76822;46.880;8.642;2024-02-28T06:45:56;96372.44;;;7.95;100.00
86173;BME280;76822;46.880;8.642;2024-02-28T06:49:17;96371.66;;;7.88;100.00
86173;BME280;76822;46.880;8.642;2024-02-28T06:52:37;96378.88;;;7.87;100.00
86173;BME280;76822;46.880;8.642;2024-02-28T06:55:57;96375.78;;;7.84;100.00
86173;BME280;76822;46.880;8.642;2024-02-28T06:59:18;96381.78;;;7.86;100.00
86173;BME280;76822;46.880;8.642;2024-02-28T07:02:38;96391.25;;;7.95;100.00
86173;BME280;76822;46.880;8.642;2024-02-28T07:05:58;96393.53;;;7.98;100.00
86173;BME280;76822;46.880;8.642;2024-02-28T07:09:19;96397.47;;;7.95;100.00
86173;BME280;76822;46.880;8.642;2024-02-28T07:12:39;96400.13;;;8.02;100.00
86173;BME280;76822;46.880;8.642;2024-02-28T07:16:00;96415.63;;;8.00;100.00
86173;BME280;76822;46.880;8.642;2024-02-28T07:19:20;96401.16;;;8.01;100.00
86173;BME280;76822;46.880;8.642;2024-02-28T07:22:42;96418.72;;;8.04;100.00
86173;BME280;76822;46.880;8.642;2024-02-28T07:26:03;96416.84;;;8.11;100.00
86173;BME280;76822;46.880;8.642;2024-02-28T07:29:23;96421.44;;;8.04;100.00
86173;BME280;76822;46.880;8.642;2024-02-28T07:32:43;96425.19;;;7.96;100.00
86173;BME280;76822;46.880;8.642;2024-02-28T07:36:04;96427.66;;;7.97;100.00
86173;BME280;76822;46.880;8.642;2024-02-28T07:39:25;96421.25;;;7.98;100.00
86173;BME280;76822;46.880;8.642;2024-02-28T07:42:45;96423.31;;;7.96;100.00
86173;BME280;76822;46.880;8.642;2024-02-28T07:46:09;96422.94;;;7.86;100.00
86173;BME280;76822;46.880;8.642;2024-02-28T07:49:31;96430.00;;;7.68;100.00
86173;BME280;76822;46.880;8.642;2024-02-28T07:52:54;96431.91;;;7.54;100.00
86173;BME280;76822;46.880;8.642;2024-02-28T07:56:19;96434.38;;;7.49;100.00
86173;BME280;76822;46.880;8.642;2024-02-28T07:59:40;96432.94;;;7.46;100.00
86173;BME280;76822;46.880;8.642;2024-02-28T08:03:01;96435.84;;;7.45;100.00
86173;BME280;76822;46.880;8.642;2024-02-28T08:06:21;96453.16;;;7.49;100.00
86173;BME280;76822;46.880;8.642;2024-02-28T08:09:42;96437.88;;;7.49;100.00
86173;BME280;76822;46.880;8.642;2024-02-28T08:13:03;96447.81;;;7.55;100.00
86173;BME280;76822;46.880;8.642;2024-02-28T08:16:23;96456.47;;;7.57;100.00
86173;BME280;76822;46.880;8.642;2024-02-28T08:19:44;96463.50;;;7.58;100.00
86173;BME280;76822;46.880;8.642;2024-02-28T08:23:05;96463.50;;;7.58;100.00
86173;BME280;76822;46.880;8.642;2024-02-28T08:26:25;96465.56;;;7.63;100.00
86173;BME280;76822;46.880;8.642;2024-02-28T08:29:46;96466.59;;;7.69;100.00
86173;BME280;76822;46.880;8.642;2024-02-28T08:33:07;96469.69;;;7.79;100.00
86173;BME280;76822;46.880;8.642;2024-02-28T08:36:29;96476.06;;;7.97;100.00
86173;BME280;76822;46.880;8.642;2024-02-28T08:39:49;96476.25;;;7.96;100.00
86173;BME280;76822;46.880;8.642;2024-02-28T08:43:10;96472.31;;;8.05;100.00
86173;BME280;76822;46.880;8.642;2024-02-28T08:46:30;96478.53;;;7.99;100.00
86173;BME280;76822;46.880;8.642;2024-02-28T08:49:52;96475.84;;;7.99;100.00
86173;BME280;76822;46.880;8.642;2024-02-28T08:53:12;96472.09;;;8.00;100.00
86173;BME280;76822;46.880;8.642;2024-02-28T08:56:33;96485.31;;;8.08;100.00
86173;BME280;76822;46.880;8.642;2024-02-28T08:59:53;96480.38;;;8.05;100.00
86173;BME280;76822;46.880;8.642;2024-02-28T09:03:13;96484.75;;;7.86;100.00
86173;BME280;76822;46.880;8.642;2024-02-28T09:06:34;96498.03;;;7.55;100.00
86173;BME280;76822;46.880;8.642;2024-02-28T09:09:54;96498.84;;;7.42;100.00
86173;BME280;76822;46.880;8.642;2024-02-28T09:13:15;96494.09;;;7.57;100.00
86173;BME280;76822;46.880;8.642;2024-02-28T09:16:35;96500.69;;;7.88;100.00
86173;BME280;76822;46.880;8.642;2024-02-28T09:19:56;96503.31;;;8.14;100.00
86173;BME280;76822;46.880;8.642;2024-02-28T09:23:16;96505.56;;;8.17;100.00
86173;BME280;76822;46.880;8.642;2024-02-28T09:26:39;96503.50;;;8.19;100.00
86173;BME280;76822;46.880;8.642;2024-02-28T09:30:00;96508.03;;;8.25;100.00
86173;BME280;76822;46.880;8.642;2024-02-28T09:33:20;96514.03;;;8.41;100.00
86173;BME280;76822;46.880;8.642;2024-02-28T09:36:44;96505.03;;;8.66;100.00
86173;BME280;76822;46.880;8.642;2024-02-28T09:40:09;96511.97;;;8.36;100.00
86173;BME280;76822;46.880;8.642;2024-02-28T09:43:31;96507.22;;;8.18;100.00
86173;BME280;76822;46.880;8.642;2024-02-28T09:46:52;96511.75;;;8.38;100.00
86173;BME280;76822;46.880;8.642;2024-02-28T09:50:13;96512.91;;;8.61;100.00
86173;BME280;76822;46.880;8.642;2024-02-28T09:53:34;96510.00;;;8.63;100.00
86173;BME280;76822;46.880;8.642;2024-02-28T09:56:55;96500.72;;;8.97;100.00
86173;BME280;76822;46.880;8.642;2024-02-28T10:00:19;96501.00;;;9.14;100.00
86173;BME280;76822;46.880;8.642;2024-02-28T10:03:42;96505.16;;;9.16;100.00
86173;BME280;76822;46.880;8.642;2024-02-28T10:07:11;96508.28;;;9.13;100.00
86173;BME280;76822;46.880;8.642;2024-02-28T10:10:37;96508.41;;;9.25;100.00
86173;BME280;76822;46.880;8.642;2024-02-28T10:13:58;96502.28;;;9.36;100.00
86173;BME280;76822;46.880;8.642;2024-02-28T10:17:19;96499.50;;;9.49;100.00
86173;BME280;76822;46.880;8.642;2024-02-28T10:20:40;96493.69;;;9.52;100.00
86173;BME280;76822;46.880;8.642;2024-02-28T10:24:00;96503.44;;;9.22;100.00
86173;BME280;76822;46.880;8.642;2024-02-28T10:27:21;96500.13;;;8.88;100.00
86173;BME280;76822;46.880;8.642;2024-02-28T10:30:41;96499.22;;;8.63;100.00
86173;BME280;76822;46.880;8.642;2024-02-28T10:34:03;96497.19;;;8.52;100.00
86173;BME280;76822;46.880;8.642;2024-02-28T10:37:24;96497.53;;;8.75;100.00
86173;BME280;76822;46.880;8.642;2024-02-28T10:40:45;96500.38;;;8.80;100.00
86173;BME280;76822;46.880;8.642;2024-02-28T10:44:07;96490.59;;;8.92;100.00
86173;BME280;76822;46.880;8.642;2024-02-28T10:47:27;96487.69;;;9.25;100.00
86173;BME280;76822;46.880;8.642;2024-02-28T10:50:49;96487.50;;;9.45;100.00
86173;BME280;76822;46.880;8.642;2024-02-28T10:54:12;96493.22;;;9.55;100.00
86173;BME280;76822;46.880;8.642;2024-02-28T10:57:33;96488.84;;;9.61;100.00
86173;BME280;76822;46.880;8.642;2024-02-28T11:00:55;96496.34;;;10.02;100.00
86173;BME280;76822;46.880;8.642;2024-02-28T11:04:16;96491.81;;;10.20;100.00
86173;BME280;76822;46.880;8.642;2024-02-28T11:07:41;96488.88;;;9.54;100.00
86173;BME280;76822;46.880;8.642;2024-02-28T11:11:04;96487.34;;;9.65;100.00
86173;BME280;76822;46.880;8.642;2024-02-28T11:14:24;96483.97;;;9.44;100.00
86173;BME280;76822;46.880;8.642;2024-02-28T11:17:46;96489.34;;;9.76;100.00
86173;BME280;76822;46.880;8.642;2024-02-28T11:21:15;96479.03;;;9.66;100.00
86173;BME280;76822;46.880;8.642;2024-02-28T11:24:35;96479.22;;;9.90;100.00
86173;BME280;76822;46.880;8.642;2024-02-28T11:28:00;96478.25;;;9.09;100.00
86173;BME280;76822;46.880;8.642;2024-02-28T11:31:21;96472.75;;;9.72;100.00
86173;BME280;76822;46.880;8.642;2024-02-28T11:34:42;96476.91;;;9.50;100.00
86173;BME280;76822;46.880;8.642;2024-02-28T11:38:06;96482.25;;;9.32;100.00
86173;BME280;76822;46.880;8.642;2024-02-28T11:41:26;96481.19;;;10.01;100.00
86173;BME280;76822;46.880;8.642;2024-02-28T11:44:55;96483.94;;;10.19;100.00
86173;BME280;76822;46.880;8.642;2024-02-28T11:48:16;96486.03;;;10.35;100.00
86173;BME280;76822;46.880;8.642;2024-02-28T11:51:37;96480.88;;;10.34;100.00
86173;BME280;76822;46.880;8.642;2024-02-28T11:54:57;96477.94;;;9.74;100.00
86173;BME280;76822;46.880;8.642;2024-02-28T11:58:18;96475.16;;;9.80;100.00
86173;BME280;76822;46.880;8.642;2024-02-28T12:01:41;96477.00;;;10.05;100.00
86173;BME280;76822;46.880;8.642;2024-02-28T12:05:04;96483.69;;;9.59;100.00
86173;BME280;76822;46.880;8.642;2024-02-28T12:08:25;96478.50;;;10.01;100.00
86173;BME280;76822;46.880;8.642;2024-02-28T12:11:46;96482.44;;;10.23;100.00
86173;BME280;76822;46.880;8.642;2024-02-28T12:15:07;96485.66;;;10.32;100.00
86173;BME280;76822;46.880;8.642;2024-02-28T12:18:28;96485.19;;;10.16;100.00
86173;BME280;76822;46.880;8.642;2024-02-28T12:21:49;96488.31;;;9.95;100.00
86173;BME280;76822;46.880;8.642;2024-02-28T12:25:10;96491.81;;;9.96;100.00
86173;BME280;76822;46.880;8.642;2024-02-28T12:28:30;96494.50;;;9.77;100.00
86173;BME280;76822;46.880;8.642;2024-02-28T12:31:51;96504.19;;;9.60;100.00
86173;BME280;76822;46.880;8.642;2024-02-28T12:35:12;96503.31;;;9.66;100.00
86173;BME280;76822;46.880;8.642;2024-02-28T12:38:32;96502.81;;;9.51;100.00
86173;BME280;76822;46.880;8.642;2024-02-28T12:41:53;96506.91;;;9.29;100.00
86173;BME280;76822;46.880;8.642;2024-02-28T12:45:14;96511.94;;;9.19;100.00
86173;BME280;76822;46.880;8.642;2024-02-28T12:48:38;96521.13;;;9.42;100.00
86173;BME280;76822;46.880;8.642;2024-02-28T12:51:59;96513.13;;;9.61;100.00
86173;BME280;76822;46.880;8.642;2024-02-28T12:55:20;96512.78;;;9.51;100.00
86173;BME280;76822;46.880;8.642;2024-02-28T12:58:43;96517.97;;;9.52;100.00
86173;BME280;76822;46.880;8.642;2024-02-28T13:02:04;96517.97;;;9.52;100.00
86173;BME280;76822;46.880;8.642;2024-02-28T13:05:24;96521.16;;;9.36;100.00
86173;BME280;76822;46.880;8.642;2024-02-28T13:08:46;96515.00;;;9.29;100.00
86173;BME280;76822;46.880;8.642;2024-02-28T13:12:11;96520.53;;;9.65;100.00
86173;BME280;76822;46.880;8.642;2024-02-28T13:15:32;96518.84;;;9.15;100.00
86173;BME280;76822;46.880;8.642;2024-02-28T13:18:52;96512.91;;;9.31;100.00
86173;BME280;76822;46.880;8.642;2024-02-28T13:22:13;96518.94;;;9.01;100.00
86173;BME280;76822;46.880;8.642;2024-02-28T13:25:33;96515.78;;;9.04;100.00
86173;BME280;76822;46.880;8.642;2024-02-28T13:28:53;96521.41;;;8.96;100.00
86173;BME280;76822;46.880;8.642;2024-02-28T13:32:14;96526.28;;;8.81;100.00
86173;BME280;76822;46.880;8.642;2024-02-28T13:35:35;96520.72;;;8.76;100.00
86173;BME280;76822;46.880;8.642;2024-02-28T13:38:55;96538.16;;;8.67;100.00
86173;BME280;76822;46.880;8.642;2024-02-28T13:42:15;96529.63;;;8.70;100.00
86173;BME280;76822;46.880;8.642;2024-02-28T13:45:37;96536.63;;;8.84;100.00
86173;BME280;76822;46.880;8.642;2024-02-28T13:49:03;96528.38;;;9.10;100.00
86173;BME280;76822;46.880;8.642;2024-02-28T13:52:24;96536.34;;;8.99;100.00
86173;BME280;76822;46.880;8.642;2024-02-28T13:55:45;96528.03;;;9.00;100.00
86173;BME280;76822;46.880;8.642;2024-02-28T13:59:09;96535.28;;;9.00;100.00
86173;BME280;76822;46.880;8.642;2024-02-28T14:02:30;96537.78;;;9.01;100.00
86173;BME280;76822;46.880;8.642;2024-02-28T14:05:51;96532.72;;;9.18;100.00
86173;BME280;76822;46.880;8.642;2024-02-28T14:09:12;96529.25;;;9.36;100.00
86173;BME280;76822;46.880;8.642;2024-02-28T14:12:32;96539.25;;;8.97;100.00
86173;BME280;76822;46.880;8.642;2024-02-28T14:15:53;96531.34;;;9.34;100.00
86173;BME280;76822;46.880;8.642;2024-02-28T14:19:14;96529.91;;;9.31;100.00
86173;BME280;76822;46.880;8.642;2024-02-28T14:22:34;96530.31;;;9.35;100.00
86173;BME280;76822;46.880;8.642;2024-02-28T14:25:55;96529.69;;;9.33;100.00
86173;BME280;76822;46.880;8.642;2024-02-28T14:29:17;96521.16;;;9.36;100.00
86173;BME280;76822;46.880;8.642;2024-02-28T14:32:38;96534.81;;;9.41;100.00
86173;BME280;76822;46.880;8.642;2024-02-28T14:35:58;96525.41;;;9.25;100.00
86173;BME280;76822;46.880;8.642;2024-02-28T14:39:20;96538.03;;;8.87;100.00
86173;BME280;76822;46.880;8.642;2024-02-28T14:42:41;96541.19;;;8.77;100.00
86173;BME280;76822;46.880;8.642;2024-02-28T14:46:02;96540.78;;;8.80;100.00
86173;BME280;76822;46.880;8.642;2024-02-28T14:49:24;96548.59;;;8.88;100.00
86173;BME280;76822;46.880;8.642;2024-02-28T14:52:44;96544.66;;;8.91;100.00
86173;BME280;76822;46.880;8.642;2024-02-28T14:56:05;96556.31;;;8.78;100.00
86173;BME280;76822;46.880;8.642;2024-02-28T14:59:26;96563.03;;;8.56;100.00
86173;BME280;76822;46.880;8.642;2024-02-28T15:02:46;96564.22;;;8.73;100.00
86173;BME280;76822;46.880;8.642;2024-02-28T15:06:07;96566.34;;;8.58;100.00
86173;BME280;76822;46.880;8.642;2024-02-28T15:09:28;96565.94;;;8.54;100.00
86173;BME280;76822;46.880;8.642;2024-02-28T15:12:49;96571.53;;;8.53;100.00
86173;BME280;76822;46.880;8.642;2024-02-28T15:16:09;96573.97;;;8.61;100.00
86173;BME280;76822;46.880;8.642;2024-02-28T15:19:29;96572.13;;;8.61;100.00
86173;BME280;76822;46.880;8.642;2024-02-28T15:22:50;96575.41;;;8.70;100.00
86173;BME280;76822;46.880;8.642;2024-02-28T15:26:11;96576.25;;;8.64;100.00
86173;BME280;76822;46.880;8.642;2024-02-28T15:29:31;96582.88;;;8.61;100.00
86173;BME280;76822;46.880;8.642;2024-02-28T15:32:52;96579.81;;;8.58;100.00
86173;BME280;76822;46.880;8.642;2024-02-28T15:36:13;96583.72;;;8.62;100.00
86173;BME280;76822;46.880;8.642;2024-02-28T15:39:33;96582.06;;;8.67;100.00
86173;BME280;76822;46.880;8.642;2024-02-28T15:42:54;96582.84;;;8.75;100.00
86173;BME280;76822;46.880;8.642;2024-02-28T15:46:14;96588.63;;;8.78;100.00
86173;BME280;76822;46.880;8.642;2024-02-28T15:49:35;96584.75;;;8.67;100.00
86173;BME280;76822;46.880;8.642;2024-02-28T15:52:55;96590.34;;;8.66;100.00
86173;BME280;76822;46.880;8.642;2024-02-28T15:56:16;96592.44;;;8.44;100.00
86173;BME280;76822;46.880;8.642;2024-02-28T15:59:36;96601.59;;;8.23;100.00
86173;BME280;76822;46.880;8.642;2024-02-28T16:02:57;96597.84;;;8.18;100.00
86173;BME280;76822;46.880;8.642;2024-02-28T16:06:17;96594.34;;;8.04;100.00
86173;BME280;76822;46.880;8.642;2024-02-28T16:09:37;96605.91;;;8.18;100.00
86173;BME280;76822;46.880;8.642;2024-02-28T16:13:00;96609.84;;;8.09;100.00
86173;BME280;76822;46.880;8.642;2024-02-28T16:16:23;96608.44;;;8.06;100.00
86173;BME280;76822;46.880;8.642;2024-02-28T16:19:44;96617.31;;;8.13;100.00
86173;BME280;76822;46.880;8.642;2024-02-28T16:23:06;96608.63;;;8.24;100.00
86173;BME280;76822;46.880;8.642;2024-02-28T16:26:26;96616.03;;;8.42;100.00
86173;BME280;76822;46.880;8.642;2024-02-28T16:29:47;96615.25;;;8.42;100.00
86173;BME280;76822;46.880;8.642;2024-02-28T16:33:07;96618.75;;;8.35;100.00
86173;BME280;76822;46.880;8.642;2024-02-28T16:36:29;96614.41;;;8.41;100.00
86173;BME280;76822;46.880;8.642;2024-02-28T16:39:50;96615.03;;;8.30;100.00
86173;BME280;76822;46.880;8.642;2024-02-28T16:43:11;96613.56;;;8.27;100.00
86173;BME280;76822;46.880;8.642;2024-02-28T16:46:31;96612.31;;;8.17;100.00
86173;BME280;76822;46.880;8.642;2024-02-28T16:49:51;96598.06;;;8.03;100.00
86173;BME280;76822;46.880;8.642;2024-02-28T16:53:12;96613.19;;;7.84;100.00
86173;BME280;76822;46.880;8.642;2024-02-28T16:56:32;96609.03;;;7.69;100.00
86173;BME280;76822;46.880;8.642;2024-02-28T16:59:53;96609.63;;;7.57;100.00
86173;BME280;76822;46.880;8.642;2024-02-28T17:03:13;96616.44;;;7.40;100.00
86173;BME280;76822;46.880;8.642;2024-02-28T17:06:33;96611.88;;;7.34;100.00
86173;BME280;76822;46.880;8.642;2024-02-28T17:09:54;96615.41;;;7.35;100.00
86173;BME280;76822;46.880;8.642;2024-02-28T17:13:14;96620.13;;;7.26;100.00
86173;BME280;76822;46.880;8.642;2024-02-28T17:16:36;96626.34;;;7.33;100.00
86173;BME280;76822;46.880;8.642;2024-02-28T17:19:57;96626.72;;;7.17;100.00
86173;BME280;76822;46.880;8.642;2024-02-28T17:23:17;96630.81;;;7.06;100.00
86173;BME280;76822;46.880;8.642;2024-02-28T17:26:38;96628.78;;;7.15;100.00
86173;BME280;76822;46.880;8.642;2024-02-28T17:29:58;96633.34;;;7.14;100.00
86173;BME280;76822;46.880;8.642;2024-02-28T17:33:20;96622.19;;;7.24;100.00
86173;BME280;76822;46.880;8.642;2024-02-28T17:36:41;96622.22;;;7.31;100.00
86173;BME280;76822;46.880;8.642;2024-02-28T17:40:01;96627.59;;;7.31;100.00
86173;BME280;76822;46.880;8.642;2024-02-28T17:43:22;96629.00;;;7.20;100.00